Time;durP1;ratioP1;P1;durP2;ratioP2;P2;SDS_P1;SDS_P2;PMS_P1;PMS_P2;Temp;Humidity;BMP_temperature;BMP_pressure;BME280_temperature;BME280_humidity;BME280_pressure;Samples;Min_cycle;Max_cycle;Signal;HPM_P1;HPM_P2
2023/07/17 10:20:39;;;;;;;38.80;36.03;;;19.20;62.30;;;;;;5089816;27;20449;-91
2023/07/17 10:27:54;;;;;;;142.57;133.07;;;18.90;61.60;;;;;;4805625;29;20113;-96
2023/07/17 10:31:23;;;;;;;102.03;96.18;;;18.90;62.00;;;;;;4947840;28;20175;-91
2023/07/17 10:34:02;;;;;;;113.63;107.25;;;18.80;61.80;;;;;;4917368;28;20054;-93
2023/07/17 10:42:00;;;;;;;110.50;103.95;;;18.70;62.20;;;;;;4965724;28;20065;-91
2023/07/17 10:47:35;;;;;;;105.10;98.88;;;18.70;62.60;;;;;;5003154;28;20046;-93
2023/07/17 10:50:13;;;;;;;91.70;86.65;;;18.80;62.30;;;;;;4973716;28;20502;-91
2023/07/17 10:52:47;;;;;;;171.98;162.35;;;18.90;62.50;;;;;;4981488;28;20053;-91
2023/07/17 10:55:42;;;;;;;183.23;173.02;;;18.90;62.00;;;;;;4991355;28;20066;-93
2023/07/17 11:02:01;;;;;;;151.30;142.93;;;18.90;62.00;;;;;;4988577;28;20084;-95
2023/07/17 11:05:43;;;;;;;219.20;205.90;;;19.40;63.10;;;;;;5118074;27;1301153;-92
2023/07/17 11:08:13;;;;;;;192.20;181.52;;;19.10;62.40;;;;;;5094697;27;20062;-96
2023/07/17 11:10:43;;;;;;;215.75;203.95;;;19.10;61.70;;;;;;5085552;28;20112;-92
2023/07/17 11:13:17;;;;;;;238.82;225.27;;;19.30;62.10;;;;;;5075499;28;20044;-93
2023/07/17 11:15:51;;;;;;;216.73;204.43;;;19.30;61.70;;;;;;5056317;28;20090;-93
2023/07/17 11:18:26;;;;;;;203.77;192.90;;;19.40;61.60;;;;;;5062928;27;20102;-94
2023/07/17 11:20:54;;;;;;;207.50;196.07;;;19.40;62.30;;;;;;5080512;28;20140;-92
2023/07/17 11:23:42;;;;;;;;;;;;;;;;;;;;;
2023/07/17 11:27:03;;;;;;;197.13;186.77;;;19.40;62.20;;;;;;5035097;28;20037;-95
2023/07/17 11:30:16;;;;;;;242.80;228.75;;;19.30;61.60;;;;;;5028369;28;20071;-92
2023/07/17 11:32:49;;;;;;;206.65;195.77;;;19.20;61.10;;;;;;5032209;28;20060;-92
2023/07/17 11:35:30;;;;;;;;;;;;;;;;;;;;;
2023/07/17 11:38:27;;;;;;;249.50;235.27;;;19.10;62.00;;;;;;5079636;28;20060;-96
2023/07/17 11:41:39;;;;;;;206.32;195.18;;;19.10;60.70;;;;;;5052153;28;20074;-96
2023/07/17 11:44:07;;;;;;;195.55;185.05;;;19.00;61.40;;;;;;5087685;28;20051;-90
2023/07/17 11:46:46;;;;;;;188.48;178.65;;;19.00;62.00;;;;;;5063401;28;20048;-94
2023/07/17 11:50:01;;;;;;;205.98;194.45;;;19.00;62.50;;;;;;5068946;27;20089;-91
2023/07/17 11:56:44;;;;;;;230.50;218.25;;;19.50;61.40;;;;;;5027070;28;20053;-96
2023/07/17 11:59:30;;;;;;;200.52;190.15;;;19.70;60.70;;;;;;4952880;28;20125;-92
2023/07/17 12:02:24;;;;;;;274.95;257.92;;;19.90;60.70;;;;;;4995487;28;20072;-95
2023/07/17 12:04:50;;;;;;;253.45;239.32;;;19.70;59.90;;;;;;5001146;28;20069;-94
2023/07/17 12:07:21;;;;;;;267.05;252.40;;;19.50;61.60;;;;;;5007943;28;20057;-93
2023/07/17 12:09:47;;;;;;;;;;;19.00;65.20;;;;;;5006791;28;20057;-92
2023/07/17 12:12:13;;;;;;;186.98;176.38;;;18.80;67.50;;;;;;4995799;28;19929;-90
2023/07/17 12:14:39;;;;;;;218.43;205.95;;;18.60;67.10;;;;;;5043064;28;20048;-90
2023/07/17 12:17:05;;;;;;;242.20;227.55;;;18.60;67.90;;;;;;5041755;28;20067;-92
2023/07/17 12:19:31;;;;;;;254.70;239.75;;;18.60;68.20;;;;;;5041600;28;20143;-91
2023/07/17 12:22:26;;;;;;;285.63;269.63;;;18.70;67.90;;;;;;5027456;28;20507;-96
2023/07/17 12:24:56;;;;;;;245.43;232.13;;;18.90;68.40;;;;;;5021741;28;20052;-90
2023/07/17 12:30:59;;;;;;;310.92;292.38;;;19.20;64.30;;;;;;4976904;28;20054;-93
2023/07/17 12:37:09;;;;;;;204.02;193.38;;;19.20;63.00;;;;;;4981362;28;20071;-93
2023/07/17 12:43:18;;;;;;;163.68;154.90;;;19.50;62.80;;;;;;4994199;28;20054;-93
2023/07/17 12:46:28;;;;;;;169.13;159.70;;;19.60;59.00;;;;;;4978603;28;20050;-94
2023/07/17 12:49:13;;;;;;;157.93;149.05;;;19.50;59.70;;;;;;4971436;28;22152;-92
2023/07/17 12:52:05;;;;;;;;;;;;;;;;;;;;;
2023/07/17 12:58:06;;;;;;;224.63;209.45;;;19.80;58.80;;;;;;5061210;28;20150;-89
2023/07/17 13:00:42;;;;;;;;;;;;;;;;;;;;;
2023/07/17 13:03:18;;;;;;;172.05;161.88;;;19.90;58.70;;;;;;5099450;27;20040;-91
2023/07/17 13:05:49;;;;;;;160.35;151.38;;;19.90;58.00;;;;;;5054743;27;20496;-91
2023/07/17 13:08:20;;;;;;;146.25;138.43;;;20.00;58.60;;;;;;5048059;27;20047;-91
2023/07/17 13:10:46;;;;;;;141.80;133.80;;;20.10;58.60;;;;;;5078414;28;21489;-92
2023/07/17 13:13:22;;;;;;;150.75;141.75;;;20.10;58.90;;;;;;5047329;27;20094;-92
2023/07/17 13:15:48;;;;;;;159.00;149.85;;;20.20;58.70;;;;;;5041197;28;20782;-92
2023/07/17 13:18:29;;;;;;;143.30;135.43;;;20.30;57.50;;;;;;5060130;28;20108;-94
2023/07/17 13:20:55;;;;;;;151.85;143.45;;;20.20;57.30;;;;;;5058093;28;20055;-90
2023/07/17 13:23:24;;;;;;;138.73;130.85;;;20.20;57.30;;;;;;5024785;28;20055;-94
2023/07/17 13:25:52;;;;;;;153.15;144.65;;;20.10;57.70;;;;;;5048861;28;20185;-94
2023/07/17 13:28:28;;;;;;;138.32;130.52;;;20.10;57.90;;;;;;5043901;28;20146;-92
2023/07/17 13:30:54;;;;;;;168.73;159.10;;;20.10;57.90;;;;;;5029307;28;20186;-91
2023/07/17 13:33:20;;;;;;;127.78;120.93;;;20.10;57.70;;;;;;5056673;28;20047;-91
2023/07/17 13:35:48;;;;;;;135.52;128.27;;;20.10;57.80;;;;;;5040883;28;20145;-91
2023/07/17 13:38:14;;;;;;;139.82;132.05;;;20.30;57.80;;;;;;5047804;28;20128;-91
2023/07/17 13:40:40;;;;;;;127.97;121.15;;;20.50;57.60;;;;;;5043323;28;20483;-93
2023/07/17 13:43:09;;;;;;;160.02;150.85;;;20.50;57.70;;;;;;5042867;28;20053;-92
2023/07/17 13:45:38;;;;;;;143.68;135.32;;;20.70;58.00;;;;;;5057116;28;20051;-96
2023/07/17 13:48:04;;;;;;;149.95;141.35;;;20.60;57.80;;;;;;5064454;28;20404;-92
2023/07/17 13:50:30;;;;;;;143.95;135.55;;;20.50;58.60;;;;;;5033918;28;20403;-90
2023/07/17 13:53:19;;;;;;;134.40;126.97;;;20.30;58.50;;;;;;5018469;27;20059;-94
2023/07/17 13:55:51;;;;;;;205.27;190.85;;;20.50;58.80;;;;;;5034284;28;20048;-93
2023/07/17 13:58:22;;;;;;;130.60;123.03;;;20.50;58.60;;;;;;5022894;28;20040;-91
2023/07/17 14:00:50;;;;;;;;;;;20.50;59.20;;;;;;5060044;28;20040;-91
2023/07/17 14:03:18;;;;;;;127.68;120.68;;;20.50;59.80;;;;;;5050911;27;19928;-92
2023/07/17 14:05:45;;;;;;;139.18;131.25;;;20.60;59.50;;;;;;5036022;28;20060;-94
2023/07/17 14:08:11;;;;;;;153.55;144.73;;;20.70;59.70;;;;;;5054151;28;20040;-90
2023/07/17 14:11:04;;;;;;;147.48;139.23;;;20.70;59.10;;;;;;5040224;28;20064;-93
2023/07/17 14:13:33;;;;;;;135.13;127.90;;;20.70;59.60;;;;;;5045260;28;20088;-91
2023/07/17 14:16:11;;;;;;;214.68;200.27;;;20.60;59.30;;;;;;5067316;28;20143;-90
2023/07/17 14:18:40;;;;;;;146.63;138.55;;;20.50;59.10;;;;;;5034906;27;20059;-92
2023/07/17 14:21:06;;;;;;;140.45;132.52;;;20.60;59.40;;;;;;5047328;28;20045;-92
2023/07/17 14:23:34;;;;;;;140.77;132.95;;;20.70;58.80;;;;;;5023890;28;20185;-90
2023/07/17 14:26:19;;;;;;;152.95;144.65;;;20.80;59.00;;;;;;5044051;28;20066;-92
2023/07/17 14:28:44;;;;;;;161.27;151.95;;;20.90;59.00;;;;;;5031382;27;20216;-92
2023/07/17 14:31:10;;;;;;;148.95;140.45;;;20.90;58.00;;;;;;5048897;28;20048;-91
2023/07/17 14:33:39;;;;;;;147.73;139.52;;;20.80;58.70;;;;;;5048072;28;20143;-93
2023/07/17 14:36:48;;;;;;;281.13;260.02;;;20.60;58.50;;;;;;5041999;28;20046;-94
2023/07/17 14:39:17;;;;;;;133.43;126.15;;;20.50;58.70;;;;;;4994694;28;20706;-93
2023/07/17 14:41:42;;;;;;;162.38;152.55;;;20.50;59.60;;;;;;5001080;28;20064;-92
2023/07/17 14:44:11;;;;;;;140.35;132.75;;;20.80;59.30;;;;;;5036722;28;20087;-91
2023/07/17 14:46:48;;;;;;;175.73;164.63;;;21.00;58.80;;;;;;5043529;28;20704;-93
2023/07/17 14:49:16;;;;;;;228.05;212.98;;;21.00;58.00;;;;;;5029523;28;20057;-91
2023/07/17 14:54:36;;;;;;;197.82;184.88;;;20.90;58.40;;;;;;5061059;28;20056;-95
2023/07/17 14:57:04;;;;;;;184.40;171.93;;;20.90;58.50;;;;;;5033104;28;20059;-92
2023/07/17 14:59:32;;;;;;;157.45;148.18;;;20.90;58.90;;;;;;5033429;28;20055;-91
2023/07/17 15:01:59;;;;;;;154.48;145.48;;;20.90;59.40;;;;;;5048321;28;20056;-91
2023/07/17 15:04:27;;;;;;;141.85;133.77;;;20.90;59.60;;;;;;5046602;28;20154;-90
2023/07/17 15:06:55;;;;;;;175.63;165.15;;;21.00;58.90;;;;;;5050858;28;20128;-93
2023/07/17 15:09:23;;;;;;;153.60;144.93;;;21.00;56.90;;;;;;5034096;28;20101;-91
2023/07/17 15:11:51;;;;;;;143.20;135.25;;;21.00;58.10;;;;;;5033988;28;20052;-90
2023/07/17 15:14:17;;;;;;;131.40;123.90;;;21.00;58.40;;;;;;5047753;28;20843;-91
2023/07/17 15:16:45;;;;;;;156.52;147.20;;;21.00;59.10;;;;;;5049169;28;20058;-90
2023/07/17 15:19:11;;;;;;;154.18;145.68;;;21.10;59.10;;;;;;5075213;28;20039;-91
2023/07/17 15:21:37;;;;;;;204.32;191.32;;;21.00;58.70;;;;;;5027175;28;20077;-93
2023/07/17 15:24:32;;;;;;;148.80;140.55;;;21.00;58.70;;;;;;5049960;28;20043;-93
2023/07/17 15:27:08;;;;;;;152.10;143.48;;;20.80;59.40;;;;;;5046023;28;20171;-92
2023/07/17 15:29:39;;;;;;;173.15;162.77;;;20.50;58.70;;;;;;5052518;28;20053;-94
2023/07/17 15:32:08;;;;;;;198.75;186.43;;;20.60;58.60;;;;;;5059007;28;20055;-91
2023/07/17 15:34:34;;;;;;;138.63;131.07;;;20.50;58.50;;;;;;5070660;28;20052;-89
2023/07/17 15:37:00;;;;;;;129.27;122.07;;;20.60;58.50;;;;;;5047030;28;20055;-91
2023/07/17 15:39:35;;;;;;;143.60;135.43;;;20.60;58.40;;;;;;5050333;28;20044;-93
2023/07/17 15:42:12;;;;;;;144.15;136.40;;;20.70;58.20;;;;;;5048374;28;20492;-92
2023/07/17 15:44:41;;;;;;;144.73;136.85;;;20.80;58.50;;;;;;5055213;28;20048;-91
2023/07/17 15:47:11;;;;;;;153.75;144.75;;;20.90;58.80;;;;;;5009654;28;20039;-93
2023/07/17 15:49:37;;;;;;;137.60;129.65;;;21.00;57.90;;;;;;5035574;28;20043;-91
2023/07/17 15:52:22;;;;;;;149.13;140.82;;;21.00;57.70;;;;;;5052521;28;20569;-90
2023/07/17 15:54:48;;;;;;;180.10;168.52;;;20.90;57.50;;;;;;5042813;28;20128;-91
2023/07/17 15:57:14;;;;;;;208.85;195.23;;;20.70;57.50;;;;;;5046210;27;20085;-93
2023/07/17 15:59:45;;;;;;;146.25;138.20;;;20.80;57.40;;;;;;5068570;28;20083;-91
2023/07/17 16:02:10;;;;;;;;;;;20.80;58.30;;;;;;5051031;27;20369;-92
2023/07/17 16:04:39;;;;;;;150.48;141.88;;;20.80;58.70;;;;;;5005247;28;19935;-91
2023/07/17 16:07:11;;;;;;;138.07;130.20;;;20.70;59.30;;;;;;4140476;28;10001026;-93
2023/07/17 16:09:54;;;;;;;146.55;138.48;;;20.70;59.40;;;;;;5056596;28;20063;-92
2023/07/17 16:12:20;;;;;;;150.80;142.68;;;20.50;59.90;;;;;;5048010;28;20048;-90
2023/07/17 16:14:48;;;;;;;149.43;141.15;;;20.30;60.30;;;;;;5071852;28;20085;-90
2023/07/17 16:17:14;;;;;;;141.18;133.23;;;20.10;60.80;;;;;;5066655;28;20081;-90
2023/07/17 16:19:42;;;;;;;134.15;126.50;;;19.90;61.40;;;;;;5052683;28;20055;-91
2023/07/17 16:22:16;;;;;;;141.23;133.27;;;19.70;61.80;;;;;;5061849;28;20059;-90
2023/07/17 16:24:42;;;;;;;123.18;116.18;;;19.60;61.90;;;;;;5092352;28;20081;-90
2023/07/17 16:30:38;;;;;;;126.18;119.22;;;19.50;62.30;;;;;;4967212;28;20058;-89
2023/07/17 16:33:04;;;;;;;132.88;125.80;;;19.40;62.50;;;;;;5008214;28;20049;-90
2023/07/17 16:35:36;;;;;;;144.55;136.27;;;19.40;62.80;;;;;;5029482;28;20067;-93
2023/07/17 16:38:07;;;;;;;137.65;129.80;;;19.30;62.70;;;;;;5033496;28;20079;-92
2023/07/17 16:40:34;;;;;;;135.80;128.02;;;19.20;62.90;;;;;;5023240;28;20061;-90
2023/07/17 16:43:02;;;;;;;153.70;144.75;;;19.20;62.90;;;;;;5029022;28;20365;-92
2023/07/17 16:45:31;;;;;;;127.57;120.32;;;19.10;63.00;;;;;;5075080;28;20051;-94
2023/07/17 16:47:57;;;;;;;156.13;147.45;;;19.10;63.30;;;;;;5071766;28;20067;-91
2023/07/17 16:50:23;;;;;;;169.35;159.93;;;19.00;63.70;;;;;;5074741;28;20071;-93
2023/07/17 16:52:51;;;;;;;172.27;162.75;;;19.00;63.90;;;;;;5064845;28;20044;-90
2023/07/17 16:55:17;;;;;;;171.77;162.32;;;19.00;64.00;;;;;;5074480;28;20044;-91
2023/07/17 16:57:50;;;;;;;188.93;178.32;;;18.90;64.00;;;;;;5065136;28;20477;-92
2023/07/17 17:00:24;;;;;;;182.98;172.98;;;18.90;64.30;;;;;;5074472;28;20043;-92
2023/07/17 17:02:50;;;;;;;229.20;217.02;;;18.80;64.50;;;;;;5065017;28;20052;-89
2023/07/17 17:05:16;;;;;;;206.45;194.45;;;18.70;64.50;;;;;;5040435;28;20584;-93
2023/07/17 17:07:44;;;;;;;210.52;199.45;;;18.60;64.90;;;;;;5070405;28;20058;-92
2023/07/17 17:10:10;;;;;;;174.55;165.02;;;18.60;64.80;;;;;;5081581;28;20040;-89
2023/07/17 17:12:36;;;;;;;207.63;195.68;;;18.60;64.90;;;;;;5084235;28;20032;-90
2023/07/17 17:15:05;;;;;;;164.13;154.93;;;18.60;64.80;;;;;;5092716;28;20097;-90
2023/07/17 17:17:31;;;;;;;216.13;204.30;;;18.60;64.90;;;;;;5086009;28;20044;-89
2023/07/17 17:19:58;;;;;;;222.85;210.55;;;18.60;65.30;;;;;;5090390;28;20048;-92
2023/07/17 17:22:23;;;;;;;230.88;218.32;;;18.60;65.40;;;;;;5081789;28;20091;-93
2023/07/17 17:24:49;;;;;;;220.43;208.75;;;18.70;65.70;;;;;;5093896;28;20118;-91
2023/07/17 17:27:15;;;;;;;204.88;194.00;;;18.80;65.40;;;;;;5069573;28;20095;-92
2023/07/17 17:29:41;;;;;;;240.15;227.10;;;19.10;65.10;;;;;;5092375;28;20044;-91
2023/07/17 17:32:10;;;;;;;239.60;226.43;;;19.20;64.60;;;;;;5090271;28;20484;-92
2023/07/17 17:34:35;;;;;;;213.35;201.85;;;19.20;63.90;;;;;;5045564;28;20052;-89
2023/07/17 17:37:01;;;;;;;162.38;153.38;;;19.20;63.90;;;;;;5062017;28;20052;-90
2023/07/17 17:39:27;;;;;;;213.00;201.50;;;19.20;64.00;;;;;;5068238;28;20052;-92
2023/07/17 17:41:56;;;;;;;218.43;206.60;;;19.20;64.10;;;;;;5059769;28;20105;-93
2023/07/17 17:44:22;;;;;;;195.40;184.60;;;19.20;63.50;;;;;;5068364;28;20044;-91
2023/07/17 17:46:48;;;;;;;160.05;151.52;;;19.20;63.20;;;;;;5079762;28;20032;-94
2023/07/17 17:49:14;;;;;;;169.88;160.00;;;19.10;62.90;;;;;;5067799;28;20059;-92
2023/07/17 17:51:39;;;;;;;155.43;146.70;;;18.90;62.70;;;;;;5035513;28;20056;-91
2023/07/17 17:54:05;;;;;;;159.50;150.93;;;18.70;63.00;;;;;;5073176;28;20046;-89
2023/07/17 17:56:31;;;;;;;158.25;149.75;;;18.60;63.30;;;;;;5057286;28;20078;-92
2023/07/17 17:59:29;;;;;;;;;;;;;;;;;;;;;
2023/07/17 18:02:16;;;;;;;150.23;141.95;;;18.40;63.80;;;;;;5068150;28;20398;-96
2023/07/17 18:05:40;;;;;;;;;;;;;;;;;;;;;
2023/07/17 18:08:43;;;;;;;172.57;162.95;;;18.20;64.80;;;;;;5082375;28;20055;-94
2023/07/17 18:11:24;;;;;;;;;;;;;;;;;;;;;
2023/07/17 18:14:29;;;;;;;146.70;138.38;;;18.00;65.30;;;;;;5054222;28;20051;-91
2023/07/17 18:17:09;;;;;;;201.45;190.93;;;18.00;66.30;;;;;;5083146;28;20779;-93
2023/07/17 18:20:11;;;;;;;192.30;181.57;;;18.00;66.20;;;;;;5036410;28;20133;-94
2023/07/17 18:22:55;;;;;;;190.68;180.63;;;18.00;66.60;;;;;;5059961;28;20044;-91
2023/07/17 18:26:00;;;;;;;226.15;214.10;;;18.00;66.70;;;;;;5068357;28;20067;-91
2023/07/17 18:28:57;;;;;;;232.88;220.45;;;18.00;66.80;;;;;;5066299;28;20108;-92
2023/07/17 18:31:37;;;;;;;256.42;242.73;;;18.00;67.40;;;;;;5049008;28;20104;-92
2023/07/17 18:34:26;;;;;;;264.98;250.80;;;18.00;67.20;;;;;;5059257;28;20152;-93
2023/07/17 18:36:58;;;;;;;257.05;243.32;;;18.00;67.80;;;;;;5038864;28;20044;-94
2023/07/17 18:39:30;;;;;;;261.17;246.88;;;18.00;67.80;;;;;;5070076;28;20389;-94
2023/07/17 18:45:35;;;;;;;;;;;;;;;;;;;;;
2023/07/17 18:48:49;;;;;;;267.75;252.85;;;17.80;68.70;;;;;;5085824;28;20044;-92
2023/07/17 18:59:29;;;;;;;;;;;;;;;;;;;;;
2023/07/17 19:02:28;;;;;;;222.38;210.50;;;17.60;69.10;;;;;;4925864;29;20063;-93
2023/07/17 19:11:50;;;;;;;218.20;206.63;;;17.50;69.40;;;;;;4918807;28;20050;-93
2023/07/17 19:14:37;;;;;;;210.38;199.07;;;17.40;69.10;;;;;;4986247;28;20052;-92
2023/07/17 19:17:21;;;;;;;210.02;198.70;;;17.30;69.20;;;;;;5048535;28;20130;-93
2023/07/17 19:20:36;;;;;;;220.27;208.52;;;17.20;69.10;;;;;;5048464;28;20063;-92
2023/07/17 19:26:39;;;;;;;161.55;152.77;;;17.10;69.30;;;;;;5021531;28;19924;-94
2023/07/17 19:29:25;;;;;;;172.13;163.32;;;17.00;69.10;;;;;;5058356;28;20048;-91
2023/07/17 19:35:22;;;;;;;180.98;171.30;;;17.00;68.80;;;;;;5045756;28;20090;-91
2023/07/17 19:37:55;;;;;;;178.63;169.25;;;17.00;68.80;;;;;;5065960;28;20162;-92
2023/07/17 19:40:44;;;;;;;188.13;178.32;;;17.00;68.90;;;;;;5076693;28;20048;-92
2023/07/17 19:43:55;;;;;;;;;;;;;;;;;;;;;
2023/07/17 19:50:20;;;;;;;;;;;;;;;;;;;;;
2023/07/17 19:52:55;;;;;;;186.88;177.10;;;16.80;69.60;;;;;;5056037;28;20040;-92
2023/07/17 19:55:24;;;;;;;192.73;182.43;;;16.80;69.50;;;;;;5061997;28;20044;-93
2023/07/17 19:58:00;;;;;;;288.55;273.02;;;16.80;69.70;;;;;;5050849;28;20105;-92
2023/07/17 20:00:46;;;;;;;;;;;;;;;;;;;;;
2023/07/17 20:03:20;;;;;;;110.47;104.25;;;16.70;69.90;;;;;;5078513;28;20052;-92
2023/07/17 20:05:49;;;;;;;121.10;114.03;;;16.60;70.10;;;;;;5083990;28;20419;-92
2023/07/17 20:08:21;;;;;;;107.90;101.57;;;16.50;70.20;;;;;;5059025;28;20055;-93
2023/07/17 20:10:47;;;;;;;;;;;16.50;70.40;;;;;;5098415;28;20108;-92
2023/07/17 20:13:22;;;;;;;;;;;;;;;;;;;;;
2023/07/17 20:15:59;;;;;;;107.93;101.78;;;16.40;70.70;;;;;;5106520;28;20062;-94
2023/07/17 20:18:27;;;;;;;119.90;112.75;;;16.40;71.30;;;;;;5057902;28;20044;-94
2023/07/17 20:21:16;;;;;;;;;;;;;;;;;;;;;
2023/07/17 20:24:15;;;;;;;103.10;96.72;;;16.30;71.50;;;;;;5062828;28;20400;-93
2023/07/17 20:27:16;;;;;;;108.97;102.45;;;16.20;71.60;;;;;;5049999;28;20036;-91
2023/07/17 20:29:45;;;;;;;111.63;104.38;;;16.20;71.70;;;;;;5024939;28;20075;-92
2023/07/17 20:32:20;;;;;;;112.03;105.25;;;16.10;71.80;;;;;;5016230;28;20040;-92
2023/07/17 20:35:09;;;;;;;105.70;99.25;;;16.10;72.10;;;;;;5060963;28;20488;-92
2023/07/17 20:38:01;;;;;;;114.97;107.55;;;16.00;72.50;;;;;;5050861;28;20059;-94
2023/07/17 20:40:44;;;;;;;114.90;107.78;;;16.00;72.30;;;;;;5068886;28;20135;-93
2023/07/17 20:43:16;;;;;;;144.77;136.20;;;16.00;72.30;;;;;;5025169;28;20571;-92
2023/07/17 20:46:24;;;;;;;116.68;109.57;;;16.00;72.40;;;;;;5071683;28;20126;-91
2023/07/17 20:49:11;;;;;;;127.38;120.13;;;15.90;72.80;;;;;;5054071;28;20101;-93
2023/07/17 20:52:20;;;;;;;127.68;120.15;;;15.80;72.60;;;;;;5043303;28;20062;-93
2023/07/17 20:55:45;;;;;;;112.45;106.05;;;15.80;73.00;;;;;;4970114;28;20044;-93
2023/07/17 20:58:52;;;;;;;;;;;;;;;;;;;;;
2023/07/17 21:02:06;;;;;;;;;;;;;;;;;;;;;
2023/07/17 21:04:44;;;;;;;128.23;120.75;;;15.60;73.70;;;;;;5022998;28;20136;-93
2023/07/17 21:07:50;;;;;;;;;;;;;;;;;;;;;
2023/07/17 21:10:41;;;;;;;133.80;125.85;;;15.50;73.50;;;;;;5057883;28;20060;-93
2023/07/17 21:13:58;;;;;;;;;;;;;;;;;;;;;
2023/07/17 21:16:54;;;;;;;;;;;;;;;;;;;;;
2023/07/17 21:19:20;;;;;;;151.57;142.48;;;15.40;73.90;;;;;;5078468;28;20039;-93
2023/07/17 21:22:25;;;;;;;;;;;;;;;;;;;;;
2023/07/17 21:25:15;;;;;;;140.18;132.00;;;15.20;74.20;;;;;;5102546;28;20402;-93
2023/07/17 21:28:18;;;;;;;152.65;143.50;;;15.20;74.20;;;;;;5039917;28;20056;-94
2023/07/17 21:31:02;;;;;;;;;;;;;;;;;;;;;
2023/07/17 21:33:31;;;;;;;;;;;15.00;74.40;;;;;;5089994;28;20102;-92
2023/07/17 21:36:47;;;;;;;135.40;127.40;;;15.00;75.40;;;;;;5074754;28;19920;-93
2023/07/17 21:42:49;;;;;;;;;;;;;;;;;;;;;
2023/07/17 21:45:55;;;;;;;148.60;139.88;;;14.90;75.20;;;;;;4993807;28;20097;-94
2023/07/17 21:48:32;;;;;;;162.80;153.07;;;14.80;75.50;;;;;;4936368;28;20058;-93
2023/07/17 21:51:49;;;;;;;147.80;139.02;;;14.80;75.10;;;;;;4939616;28;20054;-93
2023/07/17 21:54:36;;;;;;;;;;;;;;;;;;;;;
2023/07/17 21:57:42;;;;;;;149.70;140.20;;;14.70;75.60;;;;;;5072384;28;20117;-93
2023/07/17 22:00:48;;;;;;;;;;;;;;;;;;;;;
2023/07/17 22:06:42;;;;;;;155.40;145.82;;;14.60;76.10;;;;;;5068380;28;20055;-93
2023/07/17 22:10:06;;;;;;;170.85;160.60;;;14.50;76.00;;;;;;5070615;28;20544;-93
2023/07/17 22:12:43;;;;;;;153.25;144.50;;;14.50;76.20;;;;;;5061158;28;20117;-92
2023/07/17 22:15:16;;;;;;;162.23;152.45;;;14.50;76.00;;;;;;5072729;28;20047;-93
2023/07/17 22:18:06;;;;;;;169.93;159.85;;;14.40;76.00;;;;;;5051900;28;20058;-93
2023/07/17 22:21:22;;;;;;;171.52;161.07;;;14.40;76.20;;;;;;5102371;27;20113;-93
2023/07/17 22:24:20;;;;;;;;;;;;;;;;;;;;;
2023/07/17 22:27:03;;;;;;;169.93;160.13;;;14.20;76.30;;;;;;5068597;28;20051;-92
2023/07/17 22:30:22;;;;;;;166.27;156.40;;;14.30;76.40;;;;;;5073823;28;20052;-93
2023/07/17 22:33:02;;;;;;;;;;;;;;;;;;;;;
2023/07/17 22:38:58;;;;;;;172.85;162.95;;;14.10;76.90;;;;;;5106166;28;20058;-93
2023/07/17 22:41:37;;;;;;;171.43;161.90;;;14.00;77.10;;;;;;5078661;28;20032;-93
2023/07/17 22:44:24;;;;;;;;;;;;;;;;;;;;;
2023/07/17 22:47:43;;;;;;;173.55;163.40;;;14.00;77.10;;;;;;5061964;28;20332;-93
2023/07/17 22:50:35;;;;;;;174.43;163.98;;;13.90;77.50;;;;;;4996451;28;20057;-92
2023/07/17 22:53:32;;;;;;;163.52;154.15;;;13.90;77.50;;;;;;5015230;28;20065;-93
2023/07/17 22:56:16;;;;;;;163.70;153.90;;;13.90;77.60;;;;;;5074207;28;20047;-93
2023/07/17 22:58:58;;;;;;;175.75;165.35;;;13.90;77.30;;;;;;5038667;28;20107;-93
2023/07/17 23:05:33;;;;;;;;;;;;;;;;;;;;;
2023/07/17 23:08:22;;;;;;;157.63;148.48;;;13.70;77.90;;;;;;5041824;28;20048;-94
2023/07/17 23:11:41;;;;;;;155.30;146.43;;;13.70;77.80;;;;;;5058355;28;20060;-94
2023/07/17 23:14:26;;;;;;;141.52;133.30;;;13.60;77.60;;;;;;5056570;28;20050;-94
2023/07/17 23:17:06;;;;;;;154.57;145.70;;;13.60;77.70;;;;;;5025304;28;20595;-94
2023/07/17 23:19:50;;;;;;;;;;;;;;;;;;;;;
2023/07/17 23:22:51;;;;;;;;;;;;;;;;;;;;;
2023/07/17 23:25:48;;;;;;;150.10;140.82;;;13.50;77.70;;;;;;5026298;28;20045;-94
2023/07/17 23:28:24;;;;;;;151.13;142.10;;;13.50;78.00;;;;;;5027082;28;20066;-93
2023/07/17 23:32:07;;;;;;;158.80;149.35;;;13.40;78.00;;;;;;5060981;28;20098;-94
2023/07/17 23:34:46;;;;;;;139.77;131.23;;;13.30;78.00;;;;;;5057217;28;20145;-94
2023/07/17 23:37:31;;;;;;;123.82;116.32;;;13.30;78.30;;;;;;5073541;28;20055;-93
2023/07/17 23:43:51;;;;;;;131.10;122.95;;;13.30;78.30;;;;;;5061085;28;20069;-94
2023/07/17 23:46:37;;;;;;;120.47;112.55;;;13.30;78.40;;;;;;5047853;28;20035;-94
2023/07/17 23:49:15;;;;;;;150.20;141.18;;;13.30;78.20;;;;;;5080166;28;20043;-93
2023/07/17 23:51:52;;;;;;;137.40;129.02;;;13.20;78.20;;;;;;5074415;28;20052;-93
2023/07/17 23:54:37;;;;;;;156.80;147.80;;;13.20;78.30;;;;;;5062922;28;20051;-93
2023/07/17 23:57:32;;;;;;;124.85;117.15;;;13.20;78.30;;;;;;5078739;28;20496;-93
